createdAt,value
2022-09-01T00:00:31.011Z,5.83
2022-09-01T00:03:00.261Z,4.43
2022-09-01T00:05:33.022Z,6.70
2022-09-01T00:08:01.572Z,9.00
2022-09-01T00:10:30.073Z,5.00
2022-09-01T00:12:59.017Z,5.10
2022-09-01T00:15:28.257Z,4.60
2022-09-01T00:17:57.616Z,3.80
2022-09-01T00:20:26.067Z,5.70
2022-09-01T00:22:55.878Z,4.00
2022-09-01T00:25:25.022Z,29.80
2022-09-01T00:27:53.474Z,6.43
2022-09-01T00:30:22.845Z,5.80
2022-09-01T00:32:51.576Z,5.53
2022-09-01T00:35:21.119Z,4.77
2022-09-01T00:37:50.875Z,7.43
2022-09-01T00:40:20.832Z,4.57
2022-09-01T00:42:49.686Z,5.03
2022-09-01T00:45:19.547Z,6.30
2022-09-01T00:47:50.526Z,5.50
2022-09-01T00:50:20.518Z,6.00
2022-09-01T00:52:53.291Z,3.10
2022-09-01T00:55:26.997Z,4.17
2022-09-01T00:57:55.463Z,4.43
2022-09-01T01:00:26.476Z,5.23
2022-09-01T01:02:56.398Z,3.27
2022-09-01T01:05:34.417Z,3.47
2022-09-01T01:08:05.271Z,4.73
2022-09-01T01:10:38.083Z,2.53
2022-09-01T01:13:10.011Z,3.70
2022-09-01T01:15:39.309Z,3.13
2022-09-01T01:18:07.880Z,3.93
2022-09-01T01:20:53.683Z,4.10
2022-09-01T01:23:28.818Z,5.07
2022-09-01T01:26:01.720Z,4.03
2022-09-01T01:28:32.393Z,7.13
2022-09-01T01:31:05.355Z,3.60
2022-09-01T01:33:42.785Z,4.07
2022-09-01T01:36:13.534Z,8.07
2022-09-01T01:38:43.391Z,3.23
2022-09-01T01:41:13.847Z,3.37
2022-09-01T01:43:43.108Z,3.53
2022-09-01T01:46:14.624Z,3.17
2022-09-01T01:48:44.355Z,3.53
2022-09-01T01:51:14.171Z,5.33
2022-09-01T01:53:43.261Z,2.60
2022-09-01T01:56:13.083Z,2.93
2022-09-01T01:58:41.908Z,5.03
2022-09-01T02:01:12.043Z,4.30
2022-09-01T02:03:41.006Z,4.20
2022-09-01T02:06:12.320Z,3.67
2022-09-01T02:08:42.295Z,2.73
2022-09-01T02:11:13.364Z,2.70
2022-09-01T02:13:41.847Z,2.37
2022-09-01T02:16:13.243Z,5.57
2022-09-01T02:18:44.617Z,4.30
2022-09-01T02:21:18.454Z,2.67
2022-09-01T02:23:49.913Z,2.83
2022-09-01T02:26:30.325Z,2.07
2022-09-01T02:29:02.124Z,3.63
2022-09-01T02:31:32.255Z,3.93
2022-09-01T02:34:01.331Z,4.10
2022-09-01T02:36:33.033Z,4.37
2022-09-01T02:39:01.497Z,5.10
2022-09-01T02:41:32.549Z,2.50
2022-09-01T02:44:02.633Z,4.20
2022-09-01T02:46:31.817Z,2.37
2022-09-01T02:49:00.922Z,5.43
2022-09-01T02:51:29.753Z,2.53
2022-09-01T02:53:58.202Z,7.03
2022-09-01T02:56:27.743Z,3.13
2022-09-01T02:58:57.950Z,2.60
2022-09-01T03:01:29.992Z,3.70
2022-09-01T03:04:00.736Z,3.10
2022-09-01T03:06:29.403Z,5.40
2022-09-01T03:09:01.036Z,3.37
2022-09-01T03:11:32.023Z,3.67
2022-09-01T03:14:02.020Z,3.97
2022-09-01T03:16:31.666Z,4.97
2022-09-01T03:19:00.720Z,4.53
2022-09-01T03:21:29.834Z,2.70
2022-09-01T03:23:58.426Z,2.37
2022-09-01T03:26:27.269Z,4.00
2022-09-01T03:28:55.691Z,4.60
2022-09-01T03:31:29.075Z,4.43
2022-09-01T03:34:00.877Z,5.00
2022-09-01T03:36:31.188Z,2.10
2022-09-01T03:38:59.657Z,3.73
2022-09-01T03:41:31.054Z,9.17
2022-09-01T03:44:00.322Z,2.77
2022-09-01T03:46:36.267Z,2.13
2022-09-01T03:49:07.685Z,2.33
2022-09-01T03:51:39.382Z,3.50
2022-09-01T03:54:08.465Z,2.00
2022-09-01T03:56:39.287Z,2.23
2022-09-01T03:59:08.499Z,3.40
2022-09-01T04:01:43.970Z,3.53
2022-09-01T04:04:14.228Z,3.07
2022-09-01T04:06:43.376Z,3.13
2022-09-01T04:09:12.340Z,3.60
2022-09-01T04:11:45.716Z,3.67
2022-09-01T04:14:15.082Z,5.30
2022-09-01T04:17:03.145Z,4.00
2022-09-01T04:19:37.171Z,4.73
2022-09-01T04:22:08.099Z,4.23
2022-09-01T04:24:36.659Z,4.53
2022-09-01T04:27:07.801Z,3.67
2022-09-01T04:29:36.392Z,6.73
2022-09-01T04:32:13.306Z,4.53
2022-09-01T04:34:41.965Z,3.43
2022-09-01T04:37:13.275Z,5.37
2022-09-01T04:39:52.461Z,3.47
2022-09-01T04:42:24.862Z,6.13
2022-09-01T04:44:54.839Z,4.13
2022-09-01T04:47:31.668Z,5.43
2022-09-01T04:50:07.354Z,5.13
2022-09-01T04:52:36.050Z,3.80
2022-09-01T04:55:04.842Z,5.73
2022-09-01T04:57:33.339Z,3.00
2022-09-01T05:00:01.735Z,3.60
2022-09-01T05:02:31.719Z,5.50
2022-09-01T05:05:00.321Z,3.70
2022-09-01T05:07:29.027Z,6.57
2022-09-01T05:10:01.381Z,4.63
2022-09-01T05:12:29.988Z,5.67
2022-09-01T05:14:58.600Z,3.43
2022-09-01T05:17:29.346Z,3.50
2022-09-01T05:19:59.113Z,3.57
2022-09-01T05:22:27.677Z,3.30
2022-09-01T05:24:56.008Z,4.17
2022-09-01T05:27:27.110Z,5.97
2022-09-01T05:29:55.453Z,5.70
2022-09-01T05:32:26.346Z,6.43
2022-09-01T05:34:54.846Z,6.60
2022-09-01T05:37:25.389Z,6.40
2022-09-01T05:39:53.777Z,11.37
2022-09-01T05:42:22.227Z,4.50
2022-09-01T05:44:52.526Z,5.83
2022-09-01T05:47:22.347Z,5.43
2022-09-01T05:49:51.178Z,7.83
2022-09-01T05:52:26.583Z,6.83
2022-09-01T05:54:57.017Z,11.17
2022-09-01T05:57:34.986Z,3.27
2022-09-01T06:00:11.336Z,6.27
2022-09-01T06:02:41.740Z,5.30
2022-09-01T06:05:12.267Z,5.43
2022-09-01T06:07:43.070Z,16.07
2022-09-01T06:10:15.034Z,11.97
2022-09-01T06:12:48.706Z,7.13
2022-09-01T06:15:18.821Z,4.03
2022-09-01T06:17:51.479Z,6.30
2022-09-01T06:20:20.582Z,4.67
2022-09-01T06:22:51.485Z,6.47
2022-09-01T06:25:22.211Z,4.07
2022-09-01T06:27:52.699Z,71.00
2022-09-01T06:30:24.416Z,4.53
2022-09-01T06:32:53.512Z,4.77
2022-09-01T06:35:25.343Z,8.67
2022-09-01T06:37:54.529Z,8.53
2022-09-01T06:40:25.646Z,4.50
2022-09-01T06:42:54.975Z,5.17
2022-09-01T06:45:26.364Z,7.83
2022-09-01T06:47:57.625Z,53.47
2022-09-01T06:53:38.930Z,5.13
2022-09-01T06:56:11.531Z,40.60
2022-09-01T06:58:40.632Z,14.43
2022-09-01T07:01:12.206Z,8.73
2022-09-01T07:03:41.305Z,10.13
2022-09-01T07:06:58.946Z,27.93
2022-09-01T07:12:24.215Z,16.43
2022-09-01T07:17:30.935Z,2.10
2022-09-01T07:20:23.322Z,3.50
2022-09-01T07:23:04.506Z,6.23
2022-09-01T07:28:40.398Z,11.93
2022-09-01T07:39:48.424Z,2.17
2022-09-01T07:45:27.343Z,2.23
2022-09-01T07:47:56.718Z,2.43
2022-09-01T07:53:19.969Z,2.17
2022-09-01T07:55:51.058Z,1.23
2022-09-01T07:58:20.617Z,2.13
2022-09-01T08:00:51.562Z,1.77
2022-09-01T08:03:22.112Z,2.03
2022-09-01T08:05:53.948Z,1.90
2022-09-01T08:08:27.833Z,0.97
2022-09-01T08:11:04.794Z,1.70
2022-09-01T08:13:38.814Z,1.23
2022-09-01T08:16:19.535Z,1.43
2022-09-01T08:18:49.662Z,1.13
2022-09-01T08:21:22.249Z,5.27
2022-09-01T08:23:51.784Z,1.20
2022-09-01T08:26:23.275Z,3.43
2022-09-01T08:28:55.605Z,1.47
2022-09-01T08:31:30.685Z,3.27
2022-09-01T08:34:00.326Z,1.17
2022-09-01T08:36:29.123Z,1.93
2022-09-01T08:38:57.481Z,2.53
2022-09-01T08:41:40.265Z,1.67
2022-09-01T08:44:23.310Z,1.10
2022-09-01T08:46:57.514Z,3.30
2022-09-01T08:49:27.966Z,0.93
2022-09-01T08:52:02.583Z,2.50
2022-09-01T08:54:37.432Z,4.13
2022-09-01T08:57:12.399Z,2.63
2022-09-01T08:59:40.824Z,2.90
2022-09-01T09:02:24.994Z,1.27
2022-09-01T09:05:15.452Z,3.37
2022-09-01T09:08:07.867Z,1.00
2022-09-01T09:10:48.131Z,5.27
2022-09-01T09:13:24.762Z,0.80
2022-09-01T09:16:13.468Z,1.63
2022-09-01T09:18:56.885Z,1.70
2022-09-01T09:21:30.422Z,1.57
2022-09-01T09:24:07.201Z,3.57
2022-09-01T09:26:43.223Z,2.47
2022-09-01T09:29:11.767Z,3.70
2022-09-01T09:31:45.750Z,1.60
2022-09-01T09:34:35.958Z,1.30
2022-09-01T09:37:21.481Z,4.20
2022-09-01T09:40:08.339Z,3.63
2022-09-01T09:42:40.198Z,2.77
2022-09-01T09:45:25.001Z,6.90
2022-09-01T09:47:55.366Z,0.87
2022-09-01T09:50:29.749Z,1.10
2022-09-01T09:53:16.189Z,1.23
2022-09-01T09:55:56.545Z,1.40
2022-09-01T09:58:27.935Z,1.00
2022-09-01T10:01:17.774Z,2.93
2022-09-01T10:03:49.243Z,1.10
2022-09-01T10:06:34.335Z,1.10
2022-09-01T10:09:06.346Z,1.40
2022-09-01T10:11:41.435Z,1.43
2022-09-01T10:14:26.138Z,0.60
2022-09-01T10:17:10.425Z,0.50
2022-09-01T10:19:42.292Z,0.63
2022-09-01T10:22:15.219Z,0.97
2022-09-01T10:24:46.424Z,0.73
2022-09-01T10:27:23.555Z,0.83
2022-09-01T10:30:14.076Z,1.83
2022-09-01T10:32:54.971Z,1.33
2022-09-01T10:35:28.500Z,1.30
2022-09-01T10:38:00.025Z,1.20
2022-09-01T10:40:43.429Z,2.90
2022-09-01T10:43:29.349Z,1.57
2022-09-01T10:46:05.330Z,1.43
2022-09-01T10:48:51.923Z,2.63
2022-09-01T10:51:51.487Z,2.03
2022-09-01T10:54:57.532Z,2.73
2022-09-01T10:57:46.436Z,4.27
2022-09-01T11:03:42.154Z,4.37
2022-09-01T11:09:45.294Z,4.23
2022-09-01T11:12:40.458Z,2.17
2022-09-01T11:15:43.254Z,2.20
2022-09-01T11:18:18.804Z,4.33
2022-09-01T11:20:48.523Z,0.57
2022-09-01T11:23:25.378Z,3.07
2022-09-01T11:28:45.860Z,1.97
2022-09-01T11:31:33.652Z,0.80
2022-09-01T11:34:12.339Z,0.40
2022-09-01T11:36:52.982Z,0.83
2022-09-01T11:39:41.709Z,0.67
2022-09-01T11:42:14.981Z,0.77
2022-09-01T11:44:51.887Z,1.30
2022-09-01T11:47:24.596Z,1.07
2022-09-01T11:49:56.665Z,1.47
2022-09-01T11:52:28.395Z,0.63
2022-09-01T11:54:57.337Z,0.50
2022-09-01T11:57:32.966Z,1.63
2022-09-01T12:00:08.442Z,1.13
2022-09-01T12:02:38.504Z,1.90
2022-09-01T12:05:27.272Z,0.73
2022-09-01T12:07:56.616Z,0.57
2022-09-01T12:10:33.890Z,0.60
2022-09-01T12:13:04.577Z,0.50
2022-09-01T12:15:36.824Z,0.40
2022-09-01T12:18:15.309Z,0.60
2022-09-01T12:20:43.716Z,0.60
2022-09-01T12:23:20.775Z,0.73
2022-09-01T12:25:49.323Z,0.60
2022-09-01T12:28:17.890Z,2.90
2022-09-01T12:30:47.982Z,0.70
2022-09-01T12:33:24.434Z,1.13
2022-09-01T12:35:57.490Z,2.63
2022-09-01T12:38:32.030Z,1.70
2022-09-01T12:41:00.727Z,0.53
2022-09-01T12:43:35.911Z,1.77
2022-09-01T12:46:10.903Z,0.70
2022-09-01T12:48:41.587Z,1.67
2022-09-01T12:51:24.523Z,0.97
2022-09-01T12:53:58.553Z,0.80
2022-09-01T12:56:32.431Z,2.60
2022-09-01T12:59:15.844Z,1.20
2022-09-01T13:01:48.323Z,1.20
2022-09-01T13:04:26.659Z,0.80
2022-09-01T13:06:57.716Z,0.67
2022-09-01T13:09:26.604Z,5.80
2022-09-01T13:12:10.191Z,3.43
2022-09-01T13:14:38.646Z,0.87
2022-09-01T13:17:14.229Z,3.50
2022-09-01T13:19:43.193Z,2.60
2022-09-01T13:22:11.845Z,4.13
2022-09-01T13:24:40.771Z,4.13
2022-09-01T13:27:24.512Z,1.83
2022-09-01T13:29:53.547Z,0.60
2022-09-01T13:32:24.705Z,0.60
2022-09-01T13:34:54.954Z,0.60
2022-09-01T13:37:24.392Z,2.27
2022-09-01T13:39:52.943Z,1.40
2022-09-01T13:42:21.370Z,2.07
2022-09-01T13:44:52.611Z,0.70
2022-09-01T13:47:29.813Z,0.50
2022-09-01T13:50:08.592Z,2.50
2022-09-01T13:52:38.353Z,2.97
2022-09-01T13:55:07.879Z,1.07
2022-09-01T13:57:36.959Z,1.80
2022-09-01T14:00:11.063Z,0.50
2022-09-01T14:02:41.499Z,0.97
2022-09-01T14:05:10.633Z,1.33
2022-09-01T14:07:39.061Z,0.87
2022-09-01T14:10:09.144Z,1.57
2022-09-01T14:12:37.674Z,1.10
2022-09-01T14:15:13.159Z,1.93
2022-09-01T14:17:46.791Z,0.50
2022-09-01T14:20:18.539Z,1.83
2022-09-01T14:22:47.655Z,3.53
2022-09-01T14:25:17.235Z,1.37
2022-09-01T14:27:46.381Z,3.63
2022-09-01T14:30:21.505Z,2.43
2022-09-01T14:32:52.552Z,2.10
2022-09-01T14:35:24.985Z,5.53
2022-09-01T14:37:54.140Z,2.87
2022-09-01T14:40:24.399Z,2.33
2022-09-01T14:42:54.201Z,1.30
2022-09-01T14:45:25.611Z,3.50
2022-09-01T14:47:59.330Z,0.70
2022-09-01T14:50:29.204Z,0.90
2022-09-01T14:52:58.750Z,2.57
2022-09-01T14:55:30.054Z,0.70
2022-09-01T14:58:00.042Z,1.60
2022-09-01T15:00:28.684Z,0.40
2022-09-01T15:02:59.703Z,0.60
2022-09-01T15:05:28.171Z,0.50
2022-09-01T15:07:56.956Z,0.53
2022-09-01T15:10:27.226Z,0.97
2022-09-01T15:12:57.869Z,1.17
2022-09-01T15:15:27.999Z,0.50
2022-09-01T15:17:58.344Z,0.50
2022-09-01T15:20:45.691Z,0.60
2022-09-01T15:23:14.775Z,0.60
2022-09-01T15:25:43.406Z,1.13
2022-09-01T15:28:12.223Z,0.50
2022-09-01T15:30:41.264Z,1.03
2022-09-01T15:33:15.350Z,1.23
2022-09-01T15:35:45.103Z,1.30
2022-09-01T15:38:17.535Z,1.13
2022-09-01T15:40:55.493Z,2.70
2022-09-01T15:43:27.079Z,0.70
2022-09-01T15:45:55.515Z,0.73
2022-09-01T15:48:25.991Z,3.17
2022-09-01T15:50:54.836Z,3.20
2022-09-01T15:53:23.336Z,3.30
2022-09-01T15:55:51.776Z,3.70
2022-09-01T15:58:20.515Z,0.50
2022-09-01T16:00:49.028Z,1.10
2022-09-01T16:03:17.709Z,2.43
2022-09-01T16:05:47.890Z,2.20
2022-09-01T16:08:16.440Z,0.80
2022-09-01T16:10:45.014Z,2.30
2022-09-01T16:13:13.402Z,4.20
2022-09-01T16:15:50.785Z,2.13
2022-09-01T16:18:29.677Z,1.67
2022-09-01T16:21:05.719Z,0.73
2022-09-01T16:23:41.778Z,1.80
2022-09-01T16:26:12.210Z,2.73
2022-09-01T16:28:43.922Z,1.47
2022-09-01T16:31:15.778Z,3.53
2022-09-01T16:33:49.450Z,5.23
2022-09-01T16:36:33.195Z,1.13
2022-09-01T16:39:10.716Z,3.53
2022-09-01T16:41:50.221Z,0.70
2022-09-01T16:44:39.171Z,1.37
2022-09-01T16:47:24.566Z,0.60
2022-09-01T16:50:05.313Z,1.53
2022-09-01T16:52:59.355Z,2.50
2022-09-01T16:55:39.262Z,1.67
2022-09-01T16:58:21.529Z,1.60
2022-09-01T17:01:03.146Z,2.63
2022-09-01T17:03:43.165Z,2.43
2022-09-01T17:06:24.205Z,1.80
2022-09-01T17:09:00.312Z,3.60
2022-09-01T17:11:37.548Z,4.47
2022-09-01T17:14:09.046Z,1.37
2022-09-01T17:16:43.660Z,0.87
2022-09-01T17:19:18.617Z,2.00
2022-09-01T17:21:54.115Z,2.67
2022-09-01T17:24:35.188Z,1.70
2022-09-01T17:27:11.202Z,1.97
2022-09-01T17:29:45.054Z,3.67
2022-09-01T17:32:48.177Z,2.83
2022-09-01T17:35:28.818Z,5.10
2022-09-01T17:38:18.687Z,1.20
2022-09-01T17:41:05.979Z,1.43
2022-09-01T17:43:48.205Z,2.03
2022-09-01T17:46:25.231Z,6.53
2022-09-01T17:48:58.350Z,2.50
2022-09-01T17:51:33.119Z,4.33
2022-09-01T17:54:14.179Z,6.20
2022-09-01T17:56:51.780Z,3.30
2022-09-01T17:59:29.451Z,2.40
2022-09-01T18:02:22.725Z,1.77
2022-09-01T18:05:03.701Z,4.90
2022-09-01T18:07:44.196Z,2.23
2022-09-01T18:10:16.414Z,5.63
2022-09-01T18:12:50.538Z,3.73
2022-09-01T18:15:24.078Z,1.60
2022-09-01T18:17:55.735Z,1.30
2022-09-01T18:20:29.258Z,2.50
2022-09-01T18:23:04.951Z,2.23
2022-09-01T18:25:40.361Z,1.03
2022-09-01T18:28:10.764Z,0.73
2022-09-01T18:30:53.530Z,0.97
2022-09-01T18:33:29.080Z,4.10
2022-09-01T18:36:10.568Z,1.13
2022-09-01T18:38:45.479Z,2.13
2022-09-01T18:41:41.405Z,4.10
2022-09-01T18:44:26.431Z,0.90
2022-09-01T18:47:01.472Z,1.77
2022-09-01T18:49:43.928Z,1.83
2022-09-01T18:52:26.853Z,3.87
2022-09-01T18:55:05.265Z,3.83
2022-09-01T18:57:39.460Z,2.83
2022-09-01T19:00:17.970Z,2.13
2022-09-01T19:03:08.453Z,1.77
2022-09-01T19:06:10.292Z,1.07
2022-09-01T19:08:49.195Z,1.77
2022-09-01T19:11:28.033Z,2.10
2022-09-01T19:14:04.719Z,2.93
2022-09-01T19:16:47.528Z,1.40
2022-09-01T19:19:28.089Z,2.93
2022-09-01T19:21:56.785Z,3.60
2022-09-01T19:24:30.660Z,2.57
2022-09-01T19:27:04.894Z,4.63
2022-09-01T19:29:38.012Z,10.07
2022-09-01T19:32:18.302Z,3.33
2022-09-01T19:34:51.482Z,9.20
2022-09-01T19:37:21.603Z,6.17
2022-09-01T19:39:54.229Z,3.20
2022-09-01T19:42:29.998Z,5.53
2022-09-01T19:45:06.660Z,2.07
2022-09-01T19:47:45.847Z,4.47
2022-09-01T19:50:20.191Z,5.43
2022-09-01T19:52:56.998Z,2.87
2022-09-01T19:55:31.842Z,2.20
2022-09-01T19:58:04.936Z,6.20
2022-09-01T20:00:51.171Z,3.30
2022-09-01T20:03:28.110Z,2.60
2022-09-01T20:06:01.372Z,1.27
2022-09-01T20:08:34.940Z,4.70
2022-09-01T20:11:10.292Z,2.30
2022-09-01T20:14:05.091Z,1.57
2022-09-01T20:16:38.792Z,9.03
2022-09-01T20:19:12.240Z,2.60
2022-09-01T20:21:45.212Z,3.53
2022-09-01T20:24:21.128Z,4.53
2022-09-01T20:26:59.769Z,6.27
2022-09-01T20:29:36.377Z,4.90
2022-09-01T20:32:05.381Z,6.87
2022-09-01T20:34:43.525Z,3.40
2022-09-01T20:37:19.750Z,10.17
2022-09-01T20:40:04.857Z,5.77
2022-09-01T20:42:46.668Z,5.97
2022-09-01T20:45:17.820Z,9.17
2022-09-01T20:47:50.697Z,4.80
2022-09-01T20:50:24.013Z,3.50
2022-09-01T20:53:09.643Z,2.97
2022-09-01T20:55:43.110Z,3.23
2022-09-01T20:58:19.149Z,2.63
2022-09-01T21:00:55.373Z,3.17
2022-09-01T21:03:33.838Z,3.30
2022-09-01T21:06:10.700Z,4.43
2022-09-01T21:08:47.443Z,6.27
2022-09-01T21:11:26.215Z,11.27
2022-09-01T21:14:06.459Z,7.60
2022-09-01T21:16:46.036Z,2.43
2022-09-01T21:19:20.687Z,3.00
2022-09-01T21:22:05.431Z,5.50
2022-09-01T21:24:34.226Z,4.17
2022-09-01T21:27:07.564Z,3.63
2022-09-01T21:29:51.698Z,4.47
2022-09-01T21:32:20.348Z,8.73
2022-09-01T21:34:50.611Z,54.57
2022-09-01T21:37:22.643Z,194.60
2022-09-01T21:39:54.215Z,109.83
2022-09-01T21:42:25.634Z,147.13
2022-09-01T21:44:56.522Z,170.20
2022-09-01T21:47:25.711Z,22.40
2022-09-01T21:49:54.112Z,94.37
2022-09-01T21:52:23.922Z,7.20
2022-09-01T21:54:52.476Z,6.80
2022-09-01T21:57:23.265Z,4.03
2022-09-01T21:59:51.918Z,3.70
2022-09-01T22:02:21.492Z,238.30
2022-09-01T22:04:56.726Z,286.13
2022-09-01T22:07:26.621Z,308.07
2022-09-01T22:09:58.026Z,63.50
2022-09-01T22:12:26.655Z,192.80
2022-09-01T22:14:55.220Z,228.20
2022-09-01T22:17:23.726Z,17.23
2022-09-01T22:19:53.205Z,6.67
2022-09-01T22:22:21.714Z,5.63
2022-09-01T22:24:51.554Z,6.70
2022-09-01T22:27:20.120Z,3.60
2022-09-01T22:29:48.675Z,3.70
2022-09-01T22:32:17.700Z,5.63
2022-09-01T22:34:46.187Z,2.50
2022-09-01T22:37:14.964Z,3.20
2022-09-01T22:39:43.464Z,3.83
2022-09-01T22:42:13.344Z,5.70
2022-09-01T22:44:41.783Z,2.07
2022-09-01T22:47:10.236Z,5.60
2022-09-01T22:49:38.683Z,9.50
2022-09-01T22:52:07.136Z,4.00
2022-09-01T22:54:35.725Z,209.30
2022-09-01T22:57:04.260Z,207.40
2022-09-01T22:59:34.180Z,155.60
2022-09-01T23:02:02.686Z,52.47
2022-09-01T23:04:32.519Z,6.50
2022-09-01T23:07:01.347Z,5.10
2022-09-01T23:09:30.906Z,4.23
2022-09-01T23:11:59.353Z,2.10
2022-09-01T23:14:28.546Z,3.53
2022-09-01T23:16:58.660Z,3.00
2022-09-01T23:19:27.248Z,1.70
2022-09-01T23:21:55.915Z,4.10
2022-09-01T23:24:24.415Z,2.20
2022-09-01T23:26:53.082Z,2.40
2022-09-01T23:29:21.777Z,3.00
2022-09-01T23:31:52.429Z,2.47
2022-09-01T23:34:22.567Z,4.03
2022-09-01T23:36:51.138Z,3.77
2022-09-01T23:39:19.597Z,2.00
2022-09-01T23:41:48.384Z,2.63
2022-09-01T23:44:16.902Z,180.93
2022-09-01T23:46:47.347Z,243.63
2022-09-01T23:49:18.174Z,329.53
2022-09-01T23:51:49.535Z,195.30
2022-09-01T23:54:18.287Z,25.93
2022-09-01T23:56:46.943Z,3.83
2022-09-01T23:59:15.844Z,3.73
